createdAt,value
2018-12-02T00:01:02.477Z,4.80
2018-12-02T00:03:32.566Z,2.90
2018-12-02T00:06:02.684Z,2.97
2018-12-02T00:08:32.780Z,1.90
2018-12-02T00:11:02.864Z,2.20
2018-12-02T00:13:32.954Z,1.93
2018-12-02T00:16:03.149Z,2.67
2018-12-02T00:18:33.244Z,3.20
2018-12-02T00:21:03.319Z,3.53
2018-12-02T00:23:33.409Z,1.73
2018-12-02T00:26:03.533Z,2.37
2018-12-02T00:28:33.644Z,3.50
2018-12-02T00:31:03.842Z,2.93
2018-12-02T00:33:33.927Z,2.03
2018-12-02T00:36:04.024Z,1.97
2018-12-02T00:38:34.079Z,3.07
2018-12-02T00:41:04.212Z,1.30
2018-12-02T00:43:34.349Z,1.50
2018-12-02T00:46:04.486Z,1.60
2018-12-02T00:48:34.598Z,2.03
2018-12-02T00:51:04.719Z,1.80
2018-12-02T00:53:34.823Z,2.60
2018-12-02T00:56:02.849Z,1.20
2018-12-02T00:58:32.928Z,3.27
2018-12-02T01:01:03.051Z,1.97
2018-12-02T01:03:33.195Z,2.60
2018-12-02T01:06:03.253Z,1.87
2018-12-02T01:08:33.450Z,1.73
2018-12-02T01:11:03.554Z,2.70
2018-12-02T01:13:33.656Z,1.57
2018-12-02T01:16:03.719Z,3.00
2018-12-02T01:18:33.814Z,2.80
2018-12-02T01:21:03.905Z,1.30
2018-12-02T01:23:34.011Z,1.90
2018-12-02T01:26:04.144Z,2.07
2018-12-02T01:28:34.188Z,2.50
2018-12-02T01:31:04.277Z,1.93
2018-12-02T01:33:34.362Z,2.27
2018-12-02T01:36:04.482Z,1.60
2018-12-02T01:38:34.592Z,1.40
2018-12-02T01:41:04.657Z,1.83
2018-12-02T01:43:34.814Z,1.30
2018-12-02T01:46:04.897Z,1.10
2018-12-02T01:48:35.065Z,1.60
2018-12-02T01:51:05.194Z,2.53
2018-12-02T01:53:35.285Z,1.47
2018-12-02T01:56:05.797Z,2.20
2018-12-02T01:58:35.912Z,1.47
2018-12-02T02:01:06.139Z,1.47
2018-12-02T02:03:36.264Z,2.27
2018-12-02T02:06:06.467Z,1.17
2018-12-02T02:08:36.562Z,1.30
2018-12-02T02:11:06.740Z,1.50
2018-12-02T02:13:36.809Z,3.23
2018-12-02T02:16:07.331Z,3.23
2018-12-02T02:18:37.444Z,1.30
2018-12-02T02:21:08.031Z,2.37
2018-12-02T02:23:38.136Z,1.17
2018-12-02T02:26:08.159Z,1.30
2018-12-02T02:28:38.240Z,1.17
2018-12-02T02:31:08.356Z,1.40
2018-12-02T02:33:38.436Z,1.47
2018-12-02T02:36:08.500Z,1.10
2018-12-02T02:38:38.641Z,1.70
2018-12-02T02:41:08.742Z,1.30
2018-12-02T02:43:38.823Z,1.73
2018-12-02T02:46:08.898Z,1.13
2018-12-02T02:48:39.019Z,1.40
2018-12-02T02:51:09.082Z,1.80
2018-12-02T02:53:39.194Z,1.30
2018-12-02T02:56:09.283Z,1.07
2018-12-02T02:58:39.440Z,1.67
2018-12-02T03:01:09.624Z,1.20
2018-12-02T03:03:39.724Z,3.43
2018-12-02T03:06:09.828Z,1.87
2018-12-02T03:08:39.977Z,1.50
2018-12-02T03:11:10.052Z,2.00
2018-12-02T03:13:40.223Z,1.40
2018-12-02T03:16:10.319Z,2.17
2018-12-02T03:18:40.465Z,1.87
2018-12-02T03:21:10.570Z,1.30
2018-12-02T03:23:40.852Z,1.57
2018-12-02T03:26:10.962Z,2.07
2018-12-02T03:28:41.037Z,1.80
2018-12-02T03:31:11.117Z,1.37
2018-12-02T03:33:41.258Z,1.23
2018-12-02T03:36:11.362Z,1.37
2018-12-02T03:38:41.438Z,2.53
2018-12-02T03:41:11.578Z,1.80
2018-12-02T03:43:41.656Z,1.20
2018-12-02T03:46:11.712Z,1.17
2018-12-02T03:48:42.140Z,1.53
2018-12-02T03:51:12.214Z,1.50
2018-12-02T03:53:42.245Z,1.57
2018-12-02T03:56:16.380Z,2.80
2018-12-02T03:58:46.505Z,1.40
2018-12-02T04:01:16.627Z,2.07
2018-12-02T04:03:46.759Z,3.80
2018-12-02T04:06:16.906Z,1.40
2018-12-02T04:08:47.046Z,1.30
2018-12-02T04:11:17.157Z,2.07
2018-12-02T04:13:47.376Z,2.63
2018-12-02T04:16:17.424Z,1.40
2018-12-02T04:18:47.577Z,1.60
2018-12-02T04:21:17.647Z,1.30
2018-12-02T04:23:47.737Z,1.57
2018-12-02T04:26:17.767Z,1.97
2018-12-02T04:28:47.908Z,1.00
2018-12-02T04:31:18.008Z,1.00
2018-12-02T04:33:48.171Z,1.70
2018-12-02T04:36:18.246Z,1.30
2018-12-02T04:38:48.290Z,1.10
2018-12-02T04:41:18.438Z,1.00
2018-12-02T04:43:48.568Z,2.30
2018-12-02T04:46:18.672Z,2.13
2018-12-02T04:48:48.833Z,3.27
2018-12-02T04:51:18.944Z,1.30
2018-12-02T04:53:49.106Z,1.53
2018-12-02T04:56:19.132Z,1.00
2018-12-02T04:58:49.202Z,1.67
2018-12-02T05:01:19.308Z,1.10
2018-12-02T05:03:49.383Z,1.20
2018-12-02T05:06:19.524Z,1.63
2018-12-02T05:08:49.622Z,1.93
2018-12-02T05:11:19.706Z,1.20
2018-12-02T05:13:49.713Z,1.43
2018-12-02T05:16:19.914Z,1.40
2018-12-02T05:18:50.140Z,1.43
2018-12-02T05:21:20.230Z,0.90
2018-12-02T05:23:50.338Z,1.00
2018-12-02T05:26:20.420Z,1.20
2018-12-02T05:28:50.483Z,1.20
2018-12-02T05:31:20.579Z,1.10
2018-12-02T05:33:50.628Z,2.30
2018-12-02T05:36:20.751Z,1.30
2018-12-02T05:38:50.826Z,1.97
2018-12-02T05:41:20.990Z,1.00
2018-12-02T05:43:51.101Z,1.17
2018-12-02T05:46:21.209Z,1.20
2018-12-02T05:48:51.245Z,0.97
2018-12-02T05:51:21.305Z,1.80
2018-12-02T05:53:51.396Z,1.03
2018-12-02T05:56:21.476Z,1.00
2018-12-02T05:58:51.620Z,1.10
2018-12-02T06:01:21.662Z,1.33
2018-12-02T06:03:51.895Z,1.17
2018-12-02T06:06:21.990Z,1.20
2018-12-02T06:08:52.031Z,1.67
2018-12-02T06:11:22.065Z,2.17
2018-12-02T06:13:52.129Z,0.97
2018-12-02T06:16:22.231Z,1.40
2018-12-02T06:18:52.379Z,1.20
2018-12-02T06:21:22.543Z,2.70
2018-12-02T06:23:52.678Z,4.27
2018-12-02T06:26:22.724Z,2.03
2018-12-02T06:28:52.924Z,3.07
2018-12-02T06:31:23.023Z,1.10
2018-12-02T06:33:53.087Z,2.07
2018-12-02T06:36:25.956Z,1.17
2018-12-02T06:38:55.970Z,1.20
2018-12-02T06:41:26.035Z,1.17
2018-12-02T06:43:56.181Z,1.23
2018-12-02T06:46:26.290Z,1.73
2018-12-02T06:48:56.361Z,1.00
2018-12-02T06:51:26.471Z,1.03
2018-12-02T06:53:56.568Z,1.20
2018-12-02T06:56:34.884Z,1.73
2018-12-02T06:59:48.139Z,1.20
2018-12-02T07:02:35.713Z,1.53
2018-12-02T07:05:07.737Z,1.37
2018-12-02T07:07:37.930Z,2.03
2018-12-02T07:10:08.237Z,2.90
2018-12-02T07:12:38.375Z,1.50
2018-12-02T07:15:09.783Z,1.50
2018-12-02T07:17:43.431Z,1.50
2018-12-02T07:20:19.926Z,1.20
2018-12-02T07:22:53.660Z,3.00
2018-12-02T07:25:27.977Z,1.13
2018-12-02T07:27:58.080Z,1.97
2018-12-02T07:30:28.175Z,1.60
2018-12-02T07:32:58.307Z,2.50
2018-12-02T07:35:28.396Z,1.40
2018-12-02T07:38:00.946Z,1.30
2018-12-02T07:40:34.073Z,1.70
2018-12-02T07:43:06.250Z,1.60
2018-12-02T07:45:36.349Z,1.43
2018-12-02T07:48:06.742Z,2.07
2018-12-02T07:50:36.904Z,2.80
2018-12-02T07:53:07.267Z,1.47
2018-12-02T07:55:37.397Z,2.80
2018-12-02T07:58:12.333Z,2.00
2018-12-02T08:00:42.695Z,2.00
2018-12-02T08:03:15.559Z,3.13
2018-12-02T08:05:45.793Z,2.47
2018-12-02T08:08:15.913Z,3.63
2018-12-02T08:10:46.353Z,4.13
2018-12-02T08:13:16.770Z,3.80
2018-12-02T08:15:47.046Z,5.67
2018-12-02T08:18:17.473Z,4.00
2018-12-02T08:20:47.820Z,7.73
2018-12-02T08:23:18.190Z,8.57
2018-12-02T08:25:48.677Z,12.07
2018-12-02T08:28:19.037Z,9.83
2018-12-02T08:30:49.194Z,8.70
2018-12-02T08:33:19.938Z,7.80
2018-12-02T08:35:50.973Z,10.07
2018-12-02T08:38:22.281Z,9.60
2018-12-02T08:40:52.735Z,7.37
2018-12-02T08:43:22.966Z,4.07
2018-12-02T08:45:53.524Z,6.97
2018-12-02T08:48:23.648Z,3.17
2018-12-02T08:50:55.369Z,3.60
2018-12-02T08:53:25.471Z,4.07
2018-12-02T08:55:55.535Z,3.20
2018-12-02T08:58:25.699Z,4.47
2018-12-02T09:00:55.775Z,4.87
2018-12-02T09:03:25.891Z,3.93
2018-12-02T09:05:55.970Z,4.30
2018-12-02T09:08:26.017Z,6.33
2018-12-02T09:10:56.112Z,2.50
2018-12-02T09:13:26.187Z,4.03
2018-12-02T09:15:56.495Z,2.60
2018-12-02T09:18:26.751Z,5.17
2018-12-02T09:20:56.795Z,7.30
2018-12-02T09:23:28.180Z,3.07
2018-12-02T09:25:58.290Z,2.90
2018-12-02T09:28:28.442Z,3.73
2018-12-02T09:30:58.576Z,3.00
2018-12-02T09:33:31.292Z,5.90
2018-12-02T09:36:02.297Z,3.17
2018-12-02T09:38:32.786Z,2.60
2018-12-02T09:41:03.490Z,3.00
2018-12-02T09:43:35.424Z,3.10
2018-12-02T09:46:05.742Z,3.73
2018-12-02T09:48:35.888Z,4.50
2018-12-02T09:51:06.197Z,3.63
2018-12-02T09:53:36.674Z,2.73
2018-12-02T09:56:07.585Z,3.97
2018-12-02T09:58:37.668Z,2.80
2018-12-02T10:01:08.676Z,2.80
2018-12-02T10:03:38.758Z,4.20
2018-12-02T10:06:08.958Z,2.73
2018-12-02T10:08:39.102Z,3.40
2018-12-02T10:11:09.320Z,2.60
2018-12-02T10:13:39.422Z,3.33
2018-12-02T10:16:15.428Z,2.47
2018-12-02T10:18:39.875Z,3.90
2018-12-02T10:21:09.975Z,3.00
2018-12-02T10:23:40.163Z,3.40
2018-12-02T10:26:36.401Z,3.33
2018-12-02T10:29:06.836Z,3.63
2018-12-02T10:31:37.048Z,4.87
2018-12-02T10:34:07.509Z,4.60
2018-12-02T10:36:37.655Z,4.07
2018-12-02T10:39:10.846Z,8.27
2018-12-02T10:41:41.513Z,5.77
2018-12-02T10:44:11.965Z,6.40
2018-12-02T10:46:44.047Z,7.63
2018-12-02T10:49:12.818Z,10.47
2018-12-02T10:51:42.930Z,9.20
2018-12-02T10:54:13.848Z,11.70
2018-12-02T10:56:43.855Z,13.03
2018-12-02T10:59:14.091Z,14.13
2018-12-02T11:01:44.395Z,17.20
2018-12-02T11:04:14.602Z,12.13
2018-12-02T11:06:44.736Z,16.03
2018-12-02T11:09:15.088Z,14.30
2018-12-02T11:11:52.448Z,17.70
2018-12-02T11:14:22.679Z,23.20
2018-12-02T11:16:53.263Z,16.70
2018-12-02T11:19:23.410Z,16.40
2018-12-02T11:21:53.533Z,15.47
2018-12-02T11:24:23.769Z,16.27
2018-12-02T11:26:53.903Z,18.07
2018-12-02T11:29:24.141Z,14.57
2018-12-02T11:31:54.217Z,11.43
2018-12-02T11:34:24.331Z,12.70
2018-12-02T11:36:54.486Z,15.73
2018-12-02T11:39:24.579Z,14.47
2018-12-02T11:41:54.740Z,17.20
2018-12-02T11:44:24.846Z,15.10
2018-12-02T11:46:54.957Z,16.77
2018-12-02T11:49:25.061Z,16.90
2018-12-02T11:51:55.158Z,18.00
2018-12-02T11:54:25.221Z,13.57
2018-12-02T11:56:55.297Z,11.50
2018-12-02T11:59:25.446Z,10.33
2018-12-02T12:01:56.055Z,12.13
2018-12-02T12:04:26.159Z,9.57
2018-12-02T12:06:56.819Z,12.00
2018-12-02T12:09:27.035Z,7.80
2018-12-02T12:11:57.210Z,9.53
2018-12-02T12:14:27.878Z,11.33
2018-12-02T12:16:58.494Z,10.10
2018-12-02T12:19:28.873Z,10.40
2018-12-02T12:21:59.408Z,11.13
2018-12-02T12:24:30.009Z,9.97
2018-12-02T12:27:00.110Z,12.97
2018-12-02T12:29:30.683Z,11.90
2018-12-02T12:32:04.905Z,14.77
2018-12-02T12:34:36.336Z,13.87
2018-12-02T12:37:07.852Z,11.60
2018-12-02T12:39:38.035Z,11.23
2018-12-02T12:42:08.681Z,15.57
2018-12-02T12:44:39.269Z,11.40
2018-12-02T12:47:09.435Z,15.47
2018-12-02T12:49:40.049Z,13.73
2018-12-02T12:52:11.054Z,22.03
2018-12-02T12:54:41.256Z,13.57
2018-12-02T12:57:12.006Z,13.23
2018-12-02T12:59:42.736Z,12.50
2018-12-02T13:02:12.981Z,15.33
2018-12-02T13:04:43.073Z,14.60
2018-12-02T13:07:13.150Z,12.00
2018-12-02T13:09:43.242Z,15.50
2018-12-02T13:12:13.533Z,18.07
2018-12-02T13:14:43.623Z,18.17
2018-12-02T13:17:13.795Z,20.10
2018-12-02T13:19:43.916Z,15.80
2018-12-02T13:22:14.147Z,15.83
2018-12-02T13:24:44.243Z,15.07
2018-12-02T13:27:14.373Z,14.87
2018-12-02T13:29:44.479Z,14.03
2018-12-02T13:32:14.599Z,15.80
2018-12-02T13:34:44.796Z,11.33
2018-12-02T13:37:14.918Z,12.40
2018-12-02T13:39:45.010Z,11.90
2018-12-02T13:42:15.042Z,19.47
2018-12-02T13:44:45.160Z,11.50
2018-12-02T13:47:15.545Z,7.83
2018-12-02T13:49:45.672Z,10.10
2018-12-02T13:52:15.762Z,9.20
2018-12-02T13:54:45.873Z,11.30
2018-12-02T13:57:15.973Z,8.93
2018-12-02T13:59:46.049Z,10.73
2018-12-02T14:02:16.258Z,6.80
2018-12-02T14:04:46.413Z,8.13
2018-12-02T14:07:16.516Z,8.17
2018-12-02T14:09:46.773Z,8.73
2018-12-02T14:12:16.901Z,7.30
2018-12-02T14:14:48.290Z,9.13
2018-12-02T14:17:22.313Z,8.83
2018-12-02T14:19:52.514Z,8.30
2018-12-02T14:22:22.815Z,10.07
2018-12-02T14:24:53.541Z,7.03
2018-12-02T14:27:24.081Z,8.90
2018-12-02T14:29:56.660Z,9.00
2018-12-02T14:32:27.917Z,10.53
2018-12-02T14:34:58.126Z,10.47
2018-12-02T14:37:28.340Z,11.90
2018-12-02T14:39:58.572Z,10.57
2018-12-02T14:43:04.737Z,12.37
2018-12-02T14:45:48.845Z,14.17
2018-12-02T14:48:19.030Z,15.13
2018-12-02T14:50:49.192Z,14.23
2018-12-02T14:53:19.401Z,14.17
2018-12-02T14:55:49.539Z,13.17
2018-12-02T14:58:19.730Z,10.93
2018-12-02T15:00:49.940Z,13.63
2018-12-02T15:03:20.102Z,12.80
2018-12-02T15:05:50.239Z,14.43
2018-12-02T15:08:20.529Z,17.07
2018-12-02T15:10:50.661Z,15.27
2018-12-02T15:13:20.780Z,13.07
2018-12-02T15:15:51.184Z,11.80
2018-12-02T15:18:21.234Z,13.00
2018-12-02T15:20:51.406Z,21.00
2018-12-02T15:23:21.496Z,18.30
2018-12-02T15:25:51.699Z,15.50
2018-12-02T15:28:21.780Z,14.63
2018-12-02T15:30:51.865Z,13.53
2018-12-02T15:33:22.007Z,10.90
2018-12-02T15:35:52.244Z,11.70
2018-12-02T15:38:22.334Z,23.17
2018-12-02T15:40:52.884Z,11.80
2018-12-02T15:43:22.971Z,13.20
2018-12-02T15:45:53.209Z,15.40
2018-12-02T15:48:23.310Z,13.97
2018-12-02T15:50:53.462Z,14.93
2018-12-02T15:53:23.617Z,11.77
2018-12-02T15:55:54.434Z,11.27
2018-12-02T15:58:25.269Z,13.43
2018-12-02T16:00:56.460Z,14.00
2018-12-02T16:03:26.597Z,16.37
2018-12-02T16:05:56.794Z,14.50
2018-12-02T16:08:26.922Z,14.20
2018-12-02T16:10:57.091Z,19.00
2018-12-02T16:13:27.141Z,16.07
2018-12-02T16:15:57.223Z,12.97
2018-12-02T16:18:27.781Z,17.37
2018-12-02T16:20:58.805Z,16.67
2018-12-02T16:23:29.533Z,14.57
2018-12-02T16:26:02.676Z,12.93
2018-12-02T16:28:33.631Z,15.63
2018-12-02T16:31:04.209Z,16.47
2018-12-02T16:33:35.532Z,14.17
2018-12-02T16:36:06.310Z,13.53
2018-12-02T16:38:36.390Z,16.50
2018-12-02T16:41:06.631Z,16.63
2018-12-02T16:43:37.637Z,14.10
2018-12-02T16:46:08.940Z,13.67
2018-12-02T16:48:39.299Z,12.33
2018-12-02T16:51:09.805Z,11.80
2018-12-02T16:53:40.101Z,11.40
2018-12-02T16:56:13.821Z,11.50
2018-12-02T16:58:50.727Z,10.80
2018-12-02T17:01:25.304Z,11.50
2018-12-02T17:03:59.710Z,9.23
2018-12-02T17:06:29.976Z,15.73
2018-12-02T17:09:00.525Z,12.87
2018-12-02T17:11:30.843Z,19.13
2018-12-02T17:14:02.558Z,17.97
2018-12-02T17:16:32.954Z,10.47
2018-12-02T17:19:03.312Z,11.13
2018-12-02T17:21:33.994Z,13.90
2018-12-02T17:24:04.550Z,16.70
2018-12-02T17:26:34.738Z,8.50
2018-12-02T17:29:05.905Z,11.73
2018-12-02T17:31:48.247Z,17.00
2018-12-02T17:34:18.396Z,8.33
2018-12-02T17:36:48.549Z,7.37
2018-12-02T17:39:26.812Z,12.93
2018-12-02T17:42:09.728Z,11.30
2018-12-02T17:44:39.863Z,9.50
2018-12-02T17:47:10.018Z,13.70
2018-12-02T17:49:45.863Z,10.37
2018-12-02T17:52:16.001Z,9.20
2018-12-02T17:54:46.308Z,11.00
2018-12-02T17:57:16.499Z,11.50
2018-12-02T17:59:46.610Z,13.30
2018-12-02T18:02:16.737Z,11.60
2018-12-02T18:04:53.638Z,10.60
2018-12-02T18:07:23.767Z,17.60
2018-12-02T18:09:53.963Z,13.17
2018-12-02T18:12:24.123Z,14.03
2018-12-02T18:14:54.260Z,10.87
2018-12-02T18:17:24.357Z,14.67
2018-12-02T18:19:54.445Z,14.17
2018-12-02T18:22:24.614Z,10.63
2018-12-02T18:24:54.778Z,11.00
2018-12-02T18:27:26.039Z,11.23
2018-12-02T18:29:56.090Z,16.40
2018-12-02T18:32:26.214Z,10.30
2018-12-02T18:34:56.349Z,10.10
2018-12-02T18:37:26.680Z,10.60
2018-12-02T18:39:57.353Z,13.30
2018-12-02T18:42:27.753Z,14.07
2018-12-02T18:44:57.913Z,9.03
2018-12-02T18:47:28.050Z,7.70
2018-12-02T18:49:58.161Z,12.00
2018-12-02T18:52:28.431Z,10.27
2018-12-02T18:54:58.679Z,15.37
2018-12-02T18:57:28.864Z,10.37
2018-12-02T18:59:59.091Z,10.53
2018-12-02T19:02:29.265Z,8.37
2018-12-02T19:04:59.413Z,10.10
2018-12-02T19:07:29.827Z,12.63
2018-12-02T19:09:59.924Z,11.63
2018-12-02T19:12:30.111Z,9.90
2018-12-02T19:15:00.221Z,8.63
2018-12-02T19:17:30.361Z,11.40
2018-12-02T19:20:00.409Z,11.00
2018-12-02T19:22:30.544Z,8.83
2018-12-02T19:25:00.953Z,9.60
2018-12-02T19:27:31.233Z,8.40
2018-12-02T19:30:04.243Z,9.00
2018-12-02T19:32:35.350Z,6.23
2018-12-02T19:35:07.611Z,8.03
2018-12-02T19:37:37.876Z,7.13
2018-12-02T19:40:13.558Z,7.87
2018-12-02T19:42:43.677Z,6.80
2018-12-02T19:45:19.478Z,6.60
2018-12-02T19:47:49.747Z,6.50
2018-12-02T19:50:20.768Z,8.30
2018-12-02T19:52:51.125Z,6.30
2018-12-02T19:55:21.241Z,7.83
2018-12-02T19:57:51.541Z,8.20
2018-12-02T20:00:28.380Z,6.67
2018-12-02T20:02:58.473Z,6.50
2018-12-02T20:05:28.735Z,8.43
2018-12-02T20:08:01.944Z,9.23
2018-12-02T20:10:32.823Z,6.47
2018-12-02T20:13:07.659Z,6.00
2018-12-02T20:15:41.715Z,6.00
2018-12-02T20:18:12.601Z,5.93
2018-12-02T20:20:47.864Z,7.20
2018-12-02T20:23:24.068Z,6.43
2018-12-02T20:25:58.259Z,11.27
2018-12-02T20:28:40.763Z,5.00
2018-12-02T20:31:25.436Z,6.47
2018-12-02T20:33:55.726Z,4.93
2018-12-02T20:36:25.967Z,7.30
2018-12-02T20:38:56.348Z,7.10
2018-12-02T20:41:26.542Z,9.43
2018-12-02T20:43:56.878Z,13.60
2018-12-02T20:46:27.053Z,5.90
2018-12-02T20:48:57.324Z,7.27
2018-12-02T20:51:27.481Z,7.07
2018-12-02T20:53:57.631Z,13.20
2018-12-02T20:56:27.846Z,7.43
2018-12-02T20:58:58.039Z,9.90
2018-12-02T21:01:28.269Z,6.37
2018-12-02T21:03:59.868Z,8.50
2018-12-02T21:06:31.711Z,7.37
2018-12-02T21:09:00.613Z,6.27
2018-12-02T21:11:31.130Z,7.90
2018-12-02T21:14:01.288Z,10.17
2018-12-02T21:16:31.491Z,6.73
2018-12-02T21:19:01.727Z,7.33
2018-12-02T21:21:37.207Z,8.20
2018-12-02T21:24:03.192Z,11.97
2018-12-02T21:26:33.428Z,10.10
2018-12-02T21:29:03.887Z,12.77
2018-12-02T21:31:34.008Z,10.30
2018-12-02T21:34:04.142Z,9.33
2018-12-02T21:36:34.170Z,7.13
2018-12-02T21:39:04.406Z,10.00
2018-12-02T21:41:34.512Z,11.30
2018-12-02T21:44:04.738Z,9.30
2018-12-02T21:46:34.867Z,9.73
2018-12-02T21:49:05.254Z,9.03
2018-12-02T21:51:35.345Z,6.83
2018-12-02T21:54:05.660Z,8.63
2018-12-02T21:56:35.783Z,9.70
2018-12-02T21:59:06.110Z,10.40
2018-12-02T22:01:36.551Z,11.80
2018-12-02T22:04:07.166Z,10.90
2018-12-02T22:06:37.500Z,11.20
2018-12-02T22:09:09.744Z,13.80
2018-12-02T22:11:39.804Z,12.20
2018-12-02T22:14:09.892Z,8.07
2018-12-02T22:16:40.031Z,12.90
2018-12-02T22:19:10.181Z,12.80
2018-12-02T22:21:40.456Z,7.73
2018-12-02T22:24:11.077Z,7.60
2018-12-02T22:26:41.128Z,9.50
2018-12-02T22:29:11.228Z,15.80
2018-12-02T22:31:41.297Z,14.03
2018-12-02T22:34:12.263Z,9.17
2018-12-02T22:36:42.411Z,18.80
2018-12-02T22:39:12.600Z,11.80
2018-12-02T22:41:43.206Z,21.50
2018-12-02T22:44:13.946Z,21.67
2018-12-02T22:46:44.376Z,22.43
2018-12-02T22:49:14.464Z,19.43
2018-12-02T22:51:44.589Z,18.10
2018-12-02T22:54:14.879Z,24.20
2018-12-02T22:56:46.108Z,20.40
2018-12-02T22:59:16.585Z,22.73
2018-12-02T23:01:52.001Z,29.10
2018-12-02T23:04:22.253Z,20.73
2018-12-02T23:06:52.436Z,29.73
2018-12-02T23:09:22.600Z,24.30
2018-12-02T23:11:52.616Z,26.63
2018-12-02T23:14:22.698Z,24.37
2018-12-02T23:17:34.707Z,27.60
2018-12-02T23:20:05.063Z,32.53
2018-12-02T23:22:35.150Z,26.77
2018-12-02T23:25:05.483Z,26.40
2018-12-02T23:27:35.701Z,21.13
2018-12-02T23:30:11.243Z,26.47
2018-12-02T23:32:41.409Z,20.37
2018-12-02T23:35:11.606Z,25.47
2018-12-02T23:37:41.758Z,28.27
2018-12-02T23:40:22.668Z,28.47
2018-12-02T23:42:52.885Z,28.00
2018-12-02T23:45:22.994Z,27.27
2018-12-02T23:47:53.143Z,22.57
2018-12-02T23:50:24.496Z,19.50
2018-12-02T23:52:54.744Z,17.57
2018-12-02T23:55:24.919Z,15.73
2018-12-02T23:57:55.003Z,14.87
